createdAt,value
2019-01-24T00:01:32.208Z,73.43
2019-01-24T00:04:05.001Z,73.97
2019-01-24T00:06:37.892Z,74.13
2019-01-24T00:09:11.053Z,74.45
2019-01-24T00:11:44.033Z,74.80
2019-01-24T00:14:16.840Z,74.83
2019-01-24T00:16:49.656Z,75.29
2019-01-24T00:19:22.498Z,75.56
2019-01-24T00:21:55.386Z,75.72
2019-01-24T00:24:28.171Z,75.90
2019-01-24T00:27:00.946Z,76.11
2019-01-24T00:29:33.732Z,76.51
2019-01-24T00:32:06.559Z,76.72
2019-01-24T00:34:39.315Z,76.83
2019-01-24T00:37:12.206Z,77.05
2019-01-24T00:39:44.903Z,77.18
2019-01-24T00:42:17.682Z,77.22
2019-01-24T00:44:50.381Z,77.18
2019-01-24T00:47:23.104Z,77.47
2019-01-24T00:49:55.902Z,77.27
2019-01-24T00:52:28.699Z,77.71
2019-01-24T00:55:01.551Z,77.67
2019-01-24T00:57:35.447Z,77.61
2019-01-24T01:00:15.418Z,77.71
2019-01-24T01:02:48.354Z,77.79
2019-01-24T01:05:21.228Z,78.01
2019-01-24T01:07:54.276Z,78.12
2019-01-24T01:10:27.142Z,78.33
2019-01-24T01:13:00.042Z,78.27
2019-01-24T01:15:32.942Z,78.41
2019-01-24T01:18:05.801Z,78.54
2019-01-24T01:20:38.783Z,78.66
2019-01-24T01:23:11.492Z,78.44
2019-01-24T01:25:44.275Z,78.39
2019-01-24T01:28:17.065Z,78.55
2019-01-24T01:30:57.316Z,78.91
2019-01-24T01:36:08.382Z,79.12
2019-01-24T01:38:41.176Z,79.22
2019-01-24T01:41:14.003Z,79.37
2019-01-24T01:43:47.752Z,79.51
2019-01-24T01:46:20.462Z,79.65
2019-01-24T01:48:53.182Z,79.64
2019-01-24T01:51:26.340Z,79.74
2019-01-24T01:53:59.161Z,79.67
2019-01-24T01:56:31.967Z,79.89
2019-01-24T01:59:04.656Z,79.83
2019-01-24T02:01:37.399Z,79.94
2019-01-24T02:04:10.179Z,79.89
2019-01-24T02:06:42.902Z,80.10
2019-01-24T02:09:15.739Z,80.34
2019-01-24T02:11:48.463Z,80.11
2019-01-24T02:14:21.157Z,80.09
2019-01-24T02:16:53.896Z,80.52
2019-01-24T02:19:26.618Z,80.64
2019-01-24T02:21:59.435Z,80.79
2019-01-24T02:24:32.127Z,80.93
2019-01-24T02:27:04.823Z,81.10
2019-01-24T02:29:37.524Z,81.17
2019-01-24T02:32:10.249Z,81.23
2019-01-24T02:34:49.517Z,81.37
2019-01-24T02:37:17.358Z,81.30
2019-01-24T02:39:50.169Z,81.21
2019-01-24T02:42:22.910Z,81.54
2019-01-24T02:44:55.623Z,81.35
2019-01-24T02:47:28.799Z,81.59
2019-01-24T02:50:02.626Z,81.79
2019-01-24T02:52:35.331Z,81.93
2019-01-24T02:55:10.190Z,82.09
2019-01-24T02:57:42.983Z,82.22
2019-01-24T03:00:21.420Z,82.17
2019-01-24T03:02:54.154Z,82.37
2019-01-24T03:05:26.924Z,82.38
2019-01-24T03:07:59.643Z,82.35
2019-01-24T03:10:32.347Z,82.53
2019-01-24T03:13:05.055Z,82.59
2019-01-24T03:15:37.759Z,82.57
2019-01-24T03:18:10.616Z,82.83
2019-01-24T03:20:43.371Z,82.83
2019-01-24T03:23:16.099Z,83.08
2019-01-24T03:25:48.794Z,83.14
2019-01-24T03:28:21.496Z,83.02
2019-01-24T03:30:54.380Z,83.27
2019-01-24T03:33:27.290Z,83.21
2019-01-24T03:36:00.033Z,83.39
2019-01-24T03:38:32.724Z,83.41
2019-01-24T03:41:05.465Z,83.53
2019-01-24T03:43:38.363Z,83.51
2019-01-24T03:46:13.595Z,83.44
2019-01-24T03:48:47.483Z,83.24
2019-01-24T03:51:20.321Z,83.44
2019-01-24T03:53:53.114Z,83.58
2019-01-24T03:56:25.818Z,83.62
2019-01-24T03:58:58.513Z,83.62
2019-01-24T04:01:31.260Z,83.78
2019-01-24T04:04:03.989Z,83.76
2019-01-24T04:06:36.695Z,83.58
2019-01-24T04:09:10.328Z,83.49
2019-01-24T04:11:43.102Z,83.06
2019-01-24T04:14:15.785Z,82.72
2019-01-24T04:16:48.593Z,82.73
2019-01-24T04:19:21.266Z,82.50
2019-01-24T04:21:54.005Z,82.35
2019-01-24T04:24:26.713Z,82.12
2019-01-24T04:26:59.429Z,81.89
2019-01-24T04:29:32.126Z,81.78
2019-01-24T04:32:04.949Z,81.79
2019-01-24T04:34:37.724Z,81.67
2019-01-24T04:37:10.426Z,81.40
2019-01-24T04:39:43.191Z,81.15
2019-01-24T04:42:15.918Z,81.09
2019-01-24T04:44:48.682Z,81.00
2019-01-24T04:47:21.403Z,80.59
2019-01-24T04:49:54.156Z,80.67
2019-01-24T04:52:26.849Z,80.44
2019-01-24T04:54:59.595Z,80.35
2019-01-24T04:57:32.398Z,80.21
2019-01-24T05:00:09.360Z,79.90
2019-01-24T05:02:42.156Z,78.69
2019-01-24T05:05:14.903Z,78.63
2019-01-24T05:07:47.605Z,78.96
2019-01-24T05:10:20.327Z,78.62
2019-01-24T05:12:53.262Z,78.16
2019-01-24T05:15:27.022Z,78.16
2019-01-24T05:17:59.834Z,78.26
2019-01-24T05:20:32.526Z,78.17
2019-01-24T05:23:05.359Z,77.76
2019-01-24T05:25:38.154Z,77.48
2019-01-24T05:28:11.071Z,78.00
2019-01-24T05:30:43.767Z,77.91
2019-01-24T05:33:16.472Z,77.54
2019-01-24T05:35:49.310Z,77.43
2019-01-24T05:38:22.021Z,77.29
2019-01-24T05:40:54.727Z,77.08
2019-01-24T05:43:27.436Z,77.32
2019-01-24T05:46:00.166Z,77.20
2019-01-24T05:48:32.931Z,76.81
2019-01-24T05:51:05.659Z,76.58
2019-01-24T05:53:38.358Z,76.82
2019-01-24T05:56:13.430Z,76.43
2019-01-24T05:58:46.202Z,76.67
2019-01-24T06:01:19.370Z,76.76
2019-01-24T06:03:52.113Z,76.34
2019-01-24T06:06:24.807Z,76.71
2019-01-24T06:08:57.536Z,76.77
2019-01-24T06:11:30.218Z,76.10
2019-01-24T06:14:04.526Z,76.50
2019-01-24T06:16:37.224Z,76.53
2019-01-24T06:19:10.122Z,76.40
2019-01-24T06:21:42.950Z,76.74
2019-01-24T06:24:15.722Z,76.75
2019-01-24T06:26:48.449Z,75.56
2019-01-24T06:29:21.149Z,76.05
2019-01-24T06:31:53.887Z,75.95
2019-01-24T06:34:26.566Z,76.02
2019-01-24T06:36:59.261Z,75.72
2019-01-24T06:39:31.943Z,75.74
2019-01-24T06:42:04.663Z,76.03
2019-01-24T06:44:37.368Z,76.01
2019-01-24T06:47:10.105Z,76.10
2019-01-24T06:49:42.852Z,75.99
2019-01-24T06:52:15.564Z,75.98
2019-01-24T06:54:48.257Z,75.77
2019-01-24T06:57:20.966Z,75.95
2019-01-24T06:59:54.935Z,75.60
2019-01-24T07:02:27.642Z,75.53
2019-01-24T07:05:00.340Z,75.76
2019-01-24T07:07:33.020Z,76.07
2019-01-24T07:10:08.074Z,75.96
2019-01-24T07:12:40.841Z,75.45
2019-01-24T07:15:17.207Z,75.56
2019-01-24T07:17:52.060Z,75.15
2019-01-24T07:20:25.863Z,74.44
2019-01-24T07:22:58.638Z,74.30
2019-01-24T07:25:31.559Z,73.76
2019-01-24T07:28:04.344Z,73.23
2019-01-24T07:30:37.088Z,73.99
2019-01-24T07:33:09.922Z,73.80
2019-01-24T07:35:42.622Z,73.57
2019-01-24T07:38:15.441Z,72.72
2019-01-24T07:40:48.220Z,73.38
2019-01-24T07:43:20.945Z,72.46
2019-01-24T07:45:53.817Z,71.95
2019-01-24T07:48:26.607Z,72.30
2019-01-24T07:50:59.343Z,73.21
2019-01-24T07:53:32.151Z,74.05
2019-01-24T07:56:04.875Z,72.81
2019-01-24T07:58:37.737Z,72.20
2019-01-24T08:01:10.462Z,72.16
2019-01-24T08:13:48.140Z,73.79
2019-01-24T08:16:20.820Z,73.67
2019-01-24T08:18:53.641Z,73.77
2019-01-24T08:21:26.416Z,74.10
2019-01-24T08:23:59.232Z,73.98
2019-01-24T08:26:32.010Z,73.72
2019-01-24T08:29:04.891Z,73.26
2019-01-24T08:31:37.812Z,73.57
2019-01-24T08:34:10.805Z,73.51
2019-01-24T08:36:43.625Z,73.21
2019-01-24T08:39:16.586Z,73.27
2019-01-24T08:41:49.473Z,73.11
2019-01-24T08:44:22.326Z,73.55
2019-01-24T08:46:55.130Z,73.45
2019-01-24T08:49:27.919Z,73.51
2019-01-24T08:52:00.759Z,73.62
2019-01-24T08:54:33.551Z,73.01
2019-01-24T08:57:06.265Z,72.87
2019-01-24T08:59:39.015Z,72.73
2019-01-24T09:02:11.778Z,72.65
2019-01-24T09:04:44.562Z,72.62
2019-01-24T09:07:17.429Z,72.62
2019-01-24T09:09:50.454Z,72.42
2019-01-24T09:12:29.999Z,72.54
2019-01-24T09:14:57.897Z,72.68
2019-01-24T09:17:30.742Z,72.25
2019-01-24T09:20:03.549Z,71.88
2019-01-24T09:22:36.408Z,71.64
2019-01-24T09:25:09.388Z,71.99
2019-01-24T09:27:42.312Z,71.31
2019-01-24T09:30:21.709Z,71.59
2019-01-24T09:32:54.617Z,71.52
2019-01-24T09:35:27.528Z,71.15
2019-01-24T09:38:00.289Z,71.51
2019-01-24T09:40:33.110Z,71.24
2019-01-24T09:43:05.962Z,71.11
2019-01-24T09:45:38.806Z,71.17
2019-01-24T09:48:11.555Z,70.98
2019-01-24T09:50:45.004Z,71.06
2019-01-24T09:53:17.821Z,70.55
2019-01-24T09:55:50.739Z,70.67
2019-01-24T09:59:50.305Z,70.49
2019-01-24T10:03:45.592Z,70.08
2019-01-24T10:07:22.633Z,70.50
2019-01-24T10:09:56.659Z,70.66
2019-01-24T10:12:29.630Z,70.18
2019-01-24T10:15:02.581Z,70.26
2019-01-24T10:17:36.540Z,70.08
2019-01-24T10:24:02.761Z,70.14
2019-01-24T10:27:35.202Z,69.93
2019-01-24T10:30:50.669Z,69.93
2019-01-24T10:34:03.382Z,70.01
2019-01-24T10:36:51.145Z,69.60
2019-01-24T10:39:48.042Z,69.54
2019-01-24T10:43:09.621Z,69.99
2019-01-24T10:46:25.185Z,69.37
2019-01-24T10:49:01.214Z,69.31
2019-01-24T10:51:45.141Z,68.74
2019-01-24T10:54:59.309Z,69.09
2019-01-24T10:58:10.444Z,69.25
2019-01-24T11:01:39.194Z,69.15
2019-01-24T11:04:29.904Z,69.90
2019-01-24T11:07:36.163Z,70.14
2019-01-24T11:10:31.308Z,69.46
2019-01-24T11:13:35.781Z,70.07
2019-01-24T11:16:20.871Z,69.98
2019-01-24T11:19:08.903Z,70.26
2019-01-24T11:22:09.521Z,69.67
2019-01-24T11:25:15.342Z,69.56
2019-01-24T11:28:19.948Z,69.47
2019-01-24T11:31:17.431Z,69.69
2019-01-24T11:34:22.817Z,69.06
2019-01-24T11:37:07.064Z,68.70
2019-01-24T11:40:05.727Z,69.42
2019-01-24T11:42:55.189Z,69.19
2019-01-24T11:46:08.004Z,69.02
2019-01-24T11:48:45.215Z,69.41
2019-01-24T11:51:46.120Z,69.36
2019-01-24T11:54:39.202Z,69.03
2019-01-24T11:57:30.920Z,69.28
2019-01-24T12:00:22.960Z,69.55
2019-01-24T12:03:01.724Z,69.77
2019-01-24T12:05:42.470Z,70.12
2019-01-24T12:08:17.360Z,69.94
2019-01-24T12:11:30.687Z,69.89
2019-01-24T12:14:29.252Z,69.89
2019-01-24T12:16:58.468Z,70.09
2019-01-24T12:20:00.277Z,69.82
2019-01-24T12:22:39.916Z,69.45
2019-01-24T12:25:23.772Z,69.66
2019-01-24T12:28:26.198Z,69.65
2019-01-24T12:31:31.422Z,69.64
2019-01-24T12:34:34.812Z,69.57
2019-01-24T12:37:20.905Z,69.73
2019-01-24T12:40:25.711Z,69.65
2019-01-24T12:43:03.958Z,69.61
2019-01-24T12:45:45.909Z,69.88
2019-01-24T12:48:32.604Z,69.65
2019-01-24T12:51:17.231Z,69.87
2019-01-24T12:53:52.718Z,69.78
2019-01-24T12:56:33.003Z,69.69
2019-01-24T12:59:07.448Z,69.70
2019-01-24T13:02:08.454Z,69.76
2019-01-24T13:05:05.613Z,69.80
2019-01-24T13:08:01.579Z,69.82
2019-01-24T13:10:49.993Z,69.92
2019-01-24T13:13:34.901Z,69.86
2019-01-24T13:16:15.237Z,70.18
2019-01-24T13:18:55.162Z,70.23
2019-01-24T13:21:46.445Z,69.99
2019-01-24T13:24:28.927Z,70.28
2019-01-24T13:27:17.646Z,70.28
2019-01-24T13:30:05.635Z,70.00
2019-01-24T13:32:50.570Z,70.24
2019-01-24T13:35:27.739Z,70.20
2019-01-24T13:38:11.007Z,69.98
2019-01-24T13:41:06.905Z,70.01
2019-01-24T13:44:01.295Z,70.03
2019-01-24T13:47:04.097Z,69.83
2019-01-24T13:49:32.532Z,69.93
2019-01-24T13:52:43.573Z,70.19
2019-01-24T13:55:29.965Z,70.51
2019-01-24T13:58:23.621Z,70.27
2019-01-24T14:01:04.466Z,70.02
2019-01-24T14:04:21.939Z,70.05
2019-01-24T14:07:07.695Z,70.62
2019-01-24T14:09:47.176Z,70.96
2019-01-24T14:12:29.070Z,71.47
2019-01-24T14:15:14.915Z,71.58
2019-01-24T14:18:42.928Z,71.82
2019-01-24T14:22:03.073Z,71.42
2019-01-24T14:24:45.618Z,71.09
2019-01-24T14:27:30.466Z,71.56
2019-01-24T14:30:21.859Z,71.73
2019-01-24T14:32:58.098Z,71.86
2019-01-24T14:36:32.389Z,71.86
2019-01-24T14:39:14.036Z,71.36
2019-01-24T14:42:14.567Z,71.56
2019-01-24T14:45:10.073Z,71.51
2019-01-24T14:48:06.022Z,72.05
2019-01-24T14:51:21.083Z,71.95
2019-01-24T14:53:57.995Z,72.23
2019-01-24T15:01:07.309Z,72.18
2019-01-24T15:03:56.038Z,71.97
2019-01-24T15:06:43.002Z,72.09
2019-01-24T15:09:16.396Z,71.99
2019-01-24T15:11:59.624Z,72.02
2019-01-24T15:14:44.556Z,72.00
2019-01-24T15:17:20.566Z,71.93
2019-01-24T15:20:22.225Z,71.97
2019-01-24T15:23:29.637Z,72.15
2019-01-24T15:26:17.077Z,72.06
2019-01-24T15:29:07.501Z,71.91
2019-01-24T15:31:46.572Z,71.76
2019-01-24T15:34:19.939Z,71.75
2019-01-24T15:36:52.835Z,71.73
2019-01-24T15:39:25.700Z,71.70
2019-01-24T15:41:58.834Z,71.76
2019-01-24T15:44:31.922Z,71.72
2019-01-24T15:47:04.881Z,72.00
2019-01-24T15:49:38.906Z,71.92
2019-01-24T15:52:12.244Z,71.95
2019-01-24T15:54:45.156Z,71.95
2019-01-24T15:57:17.982Z,71.17
2019-01-24T15:59:50.901Z,71.29
2019-01-24T16:02:23.738Z,71.44
2019-01-24T16:04:57.013Z,70.99
2019-01-24T16:07:29.798Z,71.02
2019-01-24T16:10:02.576Z,70.89
2019-01-24T16:12:36.034Z,70.65
2019-01-24T16:15:13.424Z,70.75
2019-01-24T16:17:46.227Z,69.87
2019-01-24T16:20:21.288Z,69.76
2019-01-24T16:22:54.384Z,69.65
2019-01-24T16:25:30.775Z,69.41
2019-01-24T16:28:03.786Z,69.51
2019-01-24T16:30:37.401Z,69.50
2019-01-24T16:33:10.765Z,69.40
2019-01-24T16:35:43.707Z,69.25
2019-01-24T16:38:16.617Z,69.58
2019-01-24T16:40:49.507Z,69.37
2019-01-24T16:43:22.348Z,69.49
2019-01-24T16:45:55.258Z,69.51
2019-01-24T16:48:28.321Z,69.44
2019-01-24T16:51:02.897Z,69.42
2019-01-24T16:53:36.054Z,69.41
2019-01-24T16:56:08.861Z,69.66
2019-01-24T16:58:41.585Z,69.61
2019-01-24T17:01:23.286Z,69.75
2019-01-24T17:03:56.867Z,69.43
2019-01-24T17:06:38.164Z,69.52
2019-01-24T17:09:14.363Z,69.75
2019-01-24T17:11:48.084Z,69.99
2019-01-24T17:14:22.415Z,69.90
2019-01-24T17:16:57.612Z,70.09
2019-01-24T17:19:30.771Z,70.13
2019-01-24T17:22:04.099Z,69.52
2019-01-24T17:24:39.892Z,69.65
2019-01-24T17:27:13.114Z,68.99
2019-01-24T17:29:46.220Z,68.94
2019-01-24T17:32:21.561Z,69.15
2019-01-24T17:34:56.340Z,69.18
2019-01-24T17:37:29.343Z,68.93
2019-01-24T17:40:02.462Z,68.85
2019-01-24T17:42:35.890Z,68.34
2019-01-24T17:45:11.149Z,68.58
2019-01-24T17:47:45.913Z,68.63
2019-01-24T17:50:18.896Z,68.46
2019-01-24T17:52:52.111Z,68.77
2019-01-24T17:55:58.507Z,68.88
2019-01-24T17:58:31.450Z,68.94
2019-01-24T18:01:04.501Z,68.55
2019-01-24T18:03:37.341Z,68.68
2019-01-24T18:06:10.417Z,68.61
2019-01-24T18:08:43.357Z,68.96
2019-01-24T18:11:16.218Z,69.11
2019-01-24T18:13:49.187Z,68.81
2019-01-24T18:16:22.380Z,69.03
2019-01-24T18:18:58.497Z,69.04
2019-01-24T18:21:33.108Z,69.03
2019-01-24T18:24:06.579Z,69.09
2019-01-24T18:26:39.858Z,68.89
2019-01-24T18:29:12.980Z,68.88
2019-01-24T18:31:46.725Z,69.15
2019-01-24T18:34:22.833Z,69.09
2019-01-24T18:36:56.516Z,68.91
2019-01-24T18:39:29.848Z,68.99
2019-01-24T18:42:04.807Z,68.72
2019-01-24T18:44:42.514Z,68.62
2019-01-24T18:47:17.996Z,68.79
2019-01-24T18:49:58.672Z,68.72
2019-01-24T18:52:33.542Z,68.77
2019-01-24T18:55:08.849Z,68.63
2019-01-24T18:57:42.061Z,68.83
2019-01-24T19:00:31.567Z,68.90
2019-01-24T19:03:06.427Z,68.78
2019-01-24T19:05:40.685Z,68.66
2019-01-24T19:08:14.547Z,68.52
2019-01-24T19:10:48.399Z,68.15
2019-01-24T19:13:22.920Z,67.91
2019-01-24T19:15:59.048Z,67.62
2019-01-24T19:18:32.361Z,67.90
2019-01-24T19:21:05.524Z,68.18
2019-01-24T19:28:13.222Z,67.84
2019-01-24T19:30:50.284Z,67.65
2019-01-24T19:33:23.331Z,67.65
2019-01-24T19:36:00.342Z,67.61
2019-01-24T19:38:36.534Z,67.75
2019-01-24T19:41:11.169Z,67.22
2019-01-24T19:43:44.584Z,67.28
2019-01-24T19:46:18.163Z,67.44
2019-01-24T19:48:55.378Z,67.31
2019-01-24T19:51:30.328Z,67.20
2019-01-24T19:54:04.548Z,67.23
2019-01-24T19:56:38.043Z,67.16
2019-01-24T19:59:11.927Z,67.46
2019-01-24T20:01:58.031Z,67.16
2019-01-24T20:04:33.933Z,66.97
2019-01-24T20:07:07.250Z,67.30
2019-01-24T20:09:40.421Z,67.05
2019-01-24T20:12:13.461Z,67.25
2019-01-24T20:14:47.959Z,67.36
2019-01-24T20:17:21.604Z,67.23
2019-01-24T20:19:54.410Z,67.44
2019-01-24T20:22:27.305Z,67.73
2019-01-24T20:25:00.254Z,67.92
2019-01-24T20:27:33.151Z,67.99
2019-01-24T20:30:09.586Z,68.14
2019-01-24T20:32:43.943Z,68.56
2019-01-24T20:35:23.790Z,68.51
2019-01-24T20:37:56.783Z,68.88
2019-01-24T20:40:29.580Z,69.17
2019-01-24T20:43:02.566Z,68.93
2019-01-24T20:45:35.397Z,69.26
2019-01-24T20:48:09.275Z,68.92
2019-01-24T20:50:42.009Z,68.89
2019-01-24T20:53:14.823Z,69.23
2019-01-24T20:55:47.573Z,68.79
2019-01-24T20:58:21.323Z,69.08
2019-01-24T21:00:54.192Z,69.20
2019-01-24T21:03:26.995Z,69.46
2019-01-24T21:05:59.879Z,69.25
2019-01-24T21:08:32.617Z,69.21
2019-01-24T21:11:05.490Z,69.37
2019-01-24T21:13:38.276Z,69.62
2019-01-24T21:16:11.229Z,69.90
2019-01-24T21:18:44.094Z,69.96
2019-01-24T21:21:16.803Z,70.42
2019-01-24T21:23:50.759Z,70.80
2019-01-24T21:26:23.507Z,70.97
2019-01-24T21:28:56.302Z,71.31
2019-01-24T21:31:29.135Z,71.71
2019-01-24T21:34:01.910Z,71.88
2019-01-24T21:36:34.841Z,72.05
2019-01-24T21:39:09.740Z,72.16
2019-01-24T21:41:43.040Z,72.33
2019-01-24T21:44:15.917Z,72.80
2019-01-24T21:46:48.717Z,73.03
2019-01-24T21:49:21.572Z,73.28
2019-01-24T21:51:56.499Z,73.23
2019-01-24T21:54:29.236Z,73.43
2019-01-24T21:57:01.922Z,73.46
2019-01-24T21:59:34.822Z,74.02
2019-01-24T22:02:08.614Z,74.09
2019-01-24T22:04:41.500Z,73.91
2019-01-24T22:07:14.317Z,73.84
2019-01-24T22:09:47.190Z,73.54
2019-01-24T22:12:19.924Z,73.81
2019-01-24T22:14:52.705Z,74.40
2019-01-24T22:17:25.454Z,73.74
2019-01-24T22:19:58.194Z,74.04
2019-01-24T22:22:30.940Z,74.18
2019-01-24T22:25:03.825Z,74.97
2019-01-24T22:27:36.713Z,74.45
2019-01-24T22:30:26.264Z,74.57
2019-01-24T22:32:59.062Z,74.57
2019-01-24T22:35:31.860Z,74.78
2019-01-24T22:38:05.443Z,74.58
2019-01-24T22:40:38.213Z,74.39
2019-01-24T22:43:10.994Z,74.26
2019-01-24T22:45:43.845Z,75.10
2019-01-24T22:48:16.573Z,74.72
2019-01-24T22:50:49.367Z,74.95
2019-01-24T22:53:22.389Z,75.18
2019-01-24T22:55:55.261Z,75.13
2019-01-24T22:58:28.005Z,74.82
2019-01-24T23:01:55.516Z,75.09
2019-01-24T23:04:36.866Z,75.28
2019-01-24T23:07:09.935Z,75.33
2019-01-24T23:09:44.209Z,75.36
2019-01-24T23:12:17.197Z,75.71
2019-01-24T23:15:04.160Z,75.56
2019-01-24T23:17:36.939Z,75.93
2019-01-24T23:20:18.897Z,75.14
2019-01-24T23:22:54.326Z,75.23
2019-01-24T23:25:30.761Z,75.51
2019-01-24T23:28:06.601Z,75.21
2019-01-24T23:30:52.656Z,75.85
2019-01-24T23:33:47.560Z,75.89
2019-01-24T23:36:24.003Z,75.72
2019-01-24T23:38:56.785Z,75.97
2019-01-24T23:41:29.627Z,75.87
2019-01-24T23:44:02.333Z,75.60
2019-01-24T23:46:35.130Z,75.91
2019-01-24T23:49:07.966Z,75.53
2019-01-24T23:51:40.772Z,75.83
2019-01-24T23:54:13.543Z,75.55
2019-01-24T23:56:46.251Z,75.66
2019-01-24T23:59:18.946Z,76.24
